createdAt,value
2023-01-29T00:01:56.311Z,1.88
2023-01-29T00:04:23.122Z,1.40
2023-01-29T00:06:49.699Z,1.15
2023-01-29T00:09:16.331Z,1.25
2023-01-29T00:11:42.969Z,1.50
2023-01-29T00:14:09.574Z,1.23
2023-01-29T00:16:36.203Z,1.85
2023-01-29T00:19:03.103Z,1.48
2023-01-29T00:21:33.486Z,1.42
2023-01-29T00:24:00.597Z,1.80
2023-01-29T00:26:27.525Z,1.55
2023-01-29T00:28:55.228Z,1.98
2023-01-29T00:31:23.759Z,1.63
2023-01-29T00:33:50.951Z,1.45
2023-01-29T00:36:19.011Z,1.35
2023-01-29T00:38:54.528Z,1.10
2023-01-29T00:41:40.637Z,2.03
2023-01-29T00:44:26.353Z,1.58
2023-01-29T00:46:53.055Z,1.23
2023-01-29T00:49:19.689Z,1.88
2023-01-29T00:52:06.474Z,1.60
2023-01-29T00:54:33.296Z,2.72
2023-01-29T00:57:00.379Z,1.70
2023-01-29T00:59:27.018Z,1.23
2023-01-29T01:02:12.543Z,1.48
2023-01-29T01:04:39.251Z,1.48
2023-01-29T01:07:06.444Z,1.55
2023-01-29T01:09:54.053Z,2.10
2023-01-29T01:12:21.291Z,1.90
2023-01-29T01:14:48.108Z,1.67
2023-01-29T01:17:15.516Z,1.85
2023-01-29T01:19:42.262Z,2.17
2023-01-29T01:22:08.838Z,2.05
2023-01-29T01:24:35.458Z,1.40
2023-01-29T01:27:02.011Z,2.17
2023-01-29T01:29:28.637Z,1.52
2023-01-29T01:31:55.251Z,1.08
2023-01-29T01:34:22.360Z,2.15
2023-01-29T01:36:49.407Z,1.10
2023-01-29T01:39:16.025Z,1.30
2023-01-29T01:41:42.636Z,1.02
2023-01-29T01:44:47.534Z,1.23
2023-01-29T01:47:15.543Z,1.50
2023-01-29T01:49:42.854Z,1.80
2023-01-29T01:52:10.208Z,2.03
2023-01-29T01:54:36.871Z,1.88
2023-01-29T01:57:15.875Z,1.58
2023-01-29T01:59:51.875Z,1.40
2023-01-29T02:02:37.017Z,1.33
2023-01-29T02:05:22.137Z,1.48
2023-01-29T02:08:08.435Z,2.58
2023-01-29T02:10:47.792Z,1.27
2023-01-29T02:13:19.447Z,1.70
2023-01-29T02:15:48.801Z,1.50
2023-01-29T02:18:17.759Z,1.60
2023-01-29T02:20:59.865Z,1.70
2023-01-29T02:23:40.569Z,1.50
2023-01-29T02:26:20.612Z,2.75
2023-01-29T02:29:22.708Z,1.55
2023-01-29T02:31:59.268Z,1.20
2023-01-29T02:35:19.259Z,1.30
2023-01-29T02:37:54.336Z,1.23
2023-01-29T02:40:31.273Z,1.80
2023-01-29T02:43:08.373Z,2.08
2023-01-29T02:45:40.729Z,1.80
2023-01-29T02:48:08.622Z,1.92
2023-01-29T02:50:46.613Z,1.48
2023-01-29T02:53:18.743Z,2.28
2023-01-29T02:55:58.784Z,1.20
2023-01-29T02:58:30.651Z,2.03
2023-01-29T03:01:03.082Z,1.70
2023-01-29T03:03:34.532Z,2.17
2023-01-29T03:06:06.402Z,1.85
2023-01-29T03:08:43.208Z,1.60
2023-01-29T03:11:14.100Z,1.58
2023-01-29T03:13:55.098Z,1.63
2023-01-29T03:16:40.269Z,2.17
2023-01-29T03:19:17.424Z,2.03
2023-01-29T03:21:59.092Z,2.20
2023-01-29T03:25:04.291Z,1.88
2023-01-29T03:27:53.525Z,2.15
2023-01-29T03:30:39.794Z,2.25
2023-01-29T03:33:08.555Z,2.15
2023-01-29T03:35:39.595Z,1.60
2023-01-29T03:38:11.646Z,1.90
2023-01-29T03:41:03.503Z,1.98
2023-01-29T03:43:35.978Z,2.15
2023-01-29T03:46:08.657Z,1.95
2023-01-29T03:48:40.116Z,2.20
2023-01-29T03:51:12.146Z,3.05
2023-01-29T03:53:44.551Z,1.77
2023-01-29T03:56:29.777Z,3.10
2023-01-29T03:59:03.041Z,2.10
2023-01-29T04:01:35.932Z,2.10
2023-01-29T04:04:09.263Z,1.70
2023-01-29T04:06:37.749Z,1.70
2023-01-29T04:09:11.574Z,2.85
2023-01-29T04:11:42.948Z,1.90
2023-01-29T04:14:09.806Z,2.92
2023-01-29T04:16:42.301Z,1.63
2023-01-29T04:19:08.896Z,2.08
2023-01-29T04:21:37.623Z,2.42
2023-01-29T04:24:05.937Z,2.35
2023-01-29T04:27:16.216Z,2.92
2023-01-29T04:29:50.168Z,2.40
2023-01-29T04:32:32.249Z,2.70
2023-01-29T04:35:09.438Z,2.47
2023-01-29T04:37:37.948Z,2.47
2023-01-29T04:40:12.192Z,2.85
2023-01-29T04:42:49.412Z,3.28
2023-01-29T04:45:18.905Z,2.65
2023-01-29T04:47:52.064Z,2.85
2023-01-29T04:50:32.764Z,2.80
2023-01-29T04:53:24.216Z,2.40
2023-01-29T04:55:56.846Z,3.45
2023-01-29T04:58:54.992Z,2.67
2023-01-29T05:01:25.795Z,3.42
2023-01-29T05:03:53.832Z,2.42
2023-01-29T05:06:20.838Z,3.83
2023-01-29T05:08:48.897Z,2.20
2023-01-29T05:11:16.539Z,2.80
2023-01-29T05:13:43.544Z,2.95
2023-01-29T05:16:15.726Z,3.67
2023-01-29T05:18:42.578Z,3.58
2023-01-29T05:21:09.590Z,2.60
2023-01-29T05:23:36.781Z,2.78
2023-01-29T05:26:03.870Z,2.30
2023-01-29T05:28:30.422Z,2.75
2023-01-29T05:30:57.645Z,2.50
2023-01-29T05:33:29.651Z,3.75
2023-01-29T05:35:57.285Z,2.47
2023-01-29T05:38:23.991Z,3.42
2023-01-29T05:40:50.737Z,2.65
2023-01-29T05:43:24.014Z,2.83
2023-01-29T05:45:58.217Z,2.42
2023-01-29T05:48:25.658Z,2.97
2023-01-29T05:50:52.255Z,2.85
2023-01-29T05:53:19.114Z,2.88
2023-01-29T05:55:46.634Z,2.40
2023-01-29T05:58:13.377Z,2.20
2023-01-29T06:00:40.645Z,2.25
2023-01-29T06:03:07.364Z,2.45
2023-01-29T06:05:34.010Z,2.15
2023-01-29T06:08:00.555Z,1.83
2023-01-29T06:10:27.148Z,1.95
2023-01-29T06:12:53.739Z,3.63
2023-01-29T06:15:20.397Z,1.95
2023-01-29T06:17:46.993Z,2.20
2023-01-29T06:20:13.756Z,1.52
2023-01-29T06:22:40.420Z,2.38
2023-01-29T06:25:07.538Z,2.15
2023-01-29T06:27:34.109Z,2.40
2023-01-29T06:30:00.710Z,2.92
2023-01-29T06:32:27.862Z,2.40
2023-01-29T06:34:54.474Z,2.10
2023-01-29T06:37:21.028Z,3.40
2023-01-29T06:39:47.597Z,2.70
2023-01-29T06:42:14.194Z,2.88
2023-01-29T06:44:40.765Z,2.45
2023-01-29T06:47:07.392Z,2.58
2023-01-29T06:49:34.010Z,2.03
2023-01-29T06:52:00.594Z,2.88
2023-01-29T06:54:27.233Z,3.00
2023-01-29T06:56:53.832Z,2.40
2023-01-29T06:59:20.464Z,2.55
2023-01-29T07:01:47.126Z,2.10
2023-01-29T07:04:13.719Z,2.45
2023-01-29T07:06:40.309Z,2.55
2023-01-29T07:09:06.936Z,2.55
2023-01-29T07:11:34.905Z,2.45
2023-01-29T07:14:01.483Z,3.35
2023-01-29T07:16:28.169Z,3.15
2023-01-29T07:18:54.994Z,3.17
2023-01-29T07:21:21.636Z,3.25
2023-01-29T07:23:48.234Z,3.65
2023-01-29T07:26:15.035Z,2.70
2023-01-29T07:28:41.785Z,2.90
2023-01-29T07:31:09.431Z,3.72
2023-01-29T07:33:36.035Z,3.08
2023-01-29T07:36:02.687Z,3.17
2023-01-29T07:38:29.328Z,3.65
2023-01-29T07:40:55.913Z,3.88
2023-01-29T07:43:24.763Z,4.18
2023-01-29T07:45:51.963Z,3.28
2023-01-29T07:48:18.789Z,4.55
2023-01-29T07:50:45.363Z,3.00
2023-01-29T07:53:15.200Z,3.00
2023-01-29T07:55:44.360Z,3.33
2023-01-29T07:58:11.474Z,2.90
2023-01-29T08:00:38.087Z,3.08
2023-01-29T08:03:12.250Z,2.95
2023-01-29T08:05:38.882Z,2.90
2023-01-29T08:08:07.633Z,3.53
2023-01-29T08:10:35.869Z,3.47
2023-01-29T08:13:03.850Z,3.55
2023-01-29T08:15:30.808Z,3.33
2023-01-29T08:17:58.473Z,3.92
2023-01-29T08:20:25.636Z,3.60
2023-01-29T08:23:02.378Z,3.67
2023-01-29T08:25:29.680Z,3.47
2023-01-29T08:27:57.849Z,4.20
2023-01-29T08:30:26.106Z,4.15
2023-01-29T08:32:52.736Z,2.80
2023-01-29T08:35:19.693Z,3.53
2023-01-29T08:37:59.743Z,3.25
2023-01-29T08:40:27.975Z,3.50
2023-01-29T08:43:02.023Z,3.03
2023-01-29T08:45:30.327Z,4.13
2023-01-29T08:47:57.081Z,4.57
2023-01-29T08:50:23.724Z,6.07
2023-01-29T08:52:50.477Z,4.40
2023-01-29T08:55:17.498Z,4.00
2023-01-29T08:57:44.282Z,4.18
2023-01-29T09:00:11.586Z,3.60
2023-01-29T09:02:38.230Z,3.65
2023-01-29T09:05:05.561Z,4.13
2023-01-29T09:07:32.319Z,3.97
2023-01-29T09:09:58.880Z,4.30
2023-01-29T09:12:25.922Z,4.45
2023-01-29T09:14:52.468Z,4.15
2023-01-29T09:17:19.494Z,3.85
2023-01-29T09:19:46.046Z,3.50
2023-01-29T09:22:12.737Z,4.05
2023-01-29T09:24:39.379Z,5.22
2023-01-29T09:27:06.297Z,4.70
2023-01-29T09:29:35.507Z,4.90
2023-01-29T09:32:03.531Z,4.70
2023-01-29T09:34:30.117Z,5.50
2023-01-29T09:36:56.683Z,4.10
2023-01-29T09:39:23.256Z,6.10
2023-01-29T09:41:58.552Z,4.85
2023-01-29T09:44:34.108Z,3.97
2023-01-29T09:47:05.005Z,4.45
2023-01-29T09:49:37.514Z,5.03
2023-01-29T09:52:23.011Z,5.88
2023-01-29T09:54:57.512Z,6.47
2023-01-29T09:57:45.814Z,7.47
2023-01-29T10:00:38.689Z,5.60
2023-01-29T10:03:23.967Z,7.53
2023-01-29T10:06:18.333Z,5.35
2023-01-29T10:09:23.554Z,6.63
2023-01-29T10:12:07.339Z,6.60
2023-01-29T10:17:27.865Z,5.80
2023-01-29T10:19:54.370Z,7.05
2023-01-29T10:22:32.895Z,5.43
2023-01-29T10:25:10.240Z,8.18
2023-01-29T10:27:40.074Z,6.03
2023-01-29T10:30:21.371Z,6.80
2023-01-29T10:32:48.717Z,6.80
2023-01-29T10:35:23.967Z,7.07
2023-01-29T10:37:52.982Z,7.55
2023-01-29T10:40:37.280Z,5.78
2023-01-29T10:43:14.416Z,6.75
2023-01-29T10:46:18.954Z,5.80
2023-01-29T10:49:07.365Z,6.05
2023-01-29T10:52:00.014Z,7.78
2023-01-29T10:54:58.202Z,5.85
2023-01-29T10:57:52.479Z,8.35
2023-01-29T11:00:28.951Z,6.95
2023-01-29T11:02:55.655Z,8.23
2023-01-29T11:05:48.655Z,6.32
2023-01-29T11:08:18.735Z,6.20
2023-01-29T11:11:09.290Z,4.97
2023-01-29T11:13:51.182Z,5.07
2023-01-29T11:16:17.830Z,5.53
2023-01-29T11:18:51.634Z,5.47
2023-01-29T11:21:18.254Z,4.70
2023-01-29T11:23:45.006Z,5.82
2023-01-29T11:26:13.316Z,5.65
2023-01-29T11:28:43.618Z,4.78
2023-01-29T11:31:20.915Z,4.80
2023-01-29T11:33:47.699Z,4.90
2023-01-29T11:36:21.602Z,4.63
2023-01-29T11:39:09.310Z,5.05
2023-01-29T11:42:00.480Z,6.25
2023-01-29T11:44:31.495Z,3.45
2023-01-29T11:47:08.512Z,3.90
2023-01-29T11:49:35.497Z,3.85
2023-01-29T11:52:08.757Z,4.93
2023-01-29T11:54:39.957Z,4.22
2023-01-29T11:57:20.173Z,3.47
2023-01-29T11:59:50.704Z,4.55
2023-01-29T12:02:23.268Z,3.00
2023-01-29T12:04:50.771Z,3.77
2023-01-29T12:07:18.482Z,5.18
2023-01-29T12:09:51.512Z,3.92
2023-01-29T12:12:26.679Z,2.97
2023-01-29T12:15:25.056Z,3.10
2023-01-29T12:18:22.095Z,5.47
2023-01-29T12:20:52.045Z,3.47
2023-01-29T12:23:42.045Z,3.15
2023-01-29T12:26:17.887Z,2.72
2023-01-29T12:28:59.565Z,4.03
2023-01-29T12:31:35.292Z,5.22
2023-01-29T12:34:09.309Z,3.97
2023-01-29T12:36:59.794Z,3.40
2023-01-29T12:39:26.517Z,3.03
2023-01-29T12:41:56.184Z,3.33
2023-01-29T12:44:31.953Z,3.88
2023-01-29T12:47:01.053Z,3.35
2023-01-29T12:49:30.895Z,4.07
2023-01-29T12:52:11.611Z,4.00
2023-01-29T12:54:41.247Z,3.80
2023-01-29T12:57:36.457Z,2.92
2023-01-29T13:00:06.839Z,4.28
2023-01-29T13:02:38.594Z,3.35
2023-01-29T13:05:19.744Z,3.35
2023-01-29T13:07:53.638Z,4.57
2023-01-29T13:10:26.353Z,3.40
2023-01-29T13:13:04.434Z,4.93
2023-01-29T13:15:37.047Z,3.65
2023-01-29T13:18:29.486Z,4.67
2023-01-29T13:20:56.687Z,2.60
2023-01-29T13:23:32.674Z,3.13
2023-01-29T13:26:00.029Z,3.55
2023-01-29T13:28:27.175Z,3.70
2023-01-29T13:31:13.758Z,2.28
2023-01-29T13:33:42.185Z,3.10
2023-01-29T13:36:15.415Z,3.17
2023-01-29T13:38:45.008Z,2.58
2023-01-29T13:41:12.236Z,2.55
2023-01-29T13:43:40.987Z,3.63
2023-01-29T13:46:17.733Z,2.55
2023-01-29T13:48:46.848Z,2.97
2023-01-29T13:51:19.600Z,2.90
2023-01-29T13:53:56.178Z,3.23
2023-01-29T13:56:34.716Z,3.33
2023-01-29T13:59:05.932Z,3.50
2023-01-29T14:01:47.718Z,2.83
2023-01-29T14:04:22.855Z,3.00
2023-01-29T14:06:54.479Z,3.33
2023-01-29T14:09:39.026Z,3.45
2023-01-29T14:12:25.564Z,2.70
2023-01-29T14:15:04.317Z,3.05
2023-01-29T14:17:31.096Z,3.35
2023-01-29T14:20:17.674Z,3.55
2023-01-29T14:22:44.424Z,2.75
2023-01-29T14:25:17.537Z,3.10
2023-01-29T14:27:48.217Z,3.03
2023-01-29T14:30:18.210Z,3.05
2023-01-29T14:32:49.540Z,2.55
2023-01-29T14:35:20.184Z,3.90
2023-01-29T14:37:55.268Z,2.83
2023-01-29T14:40:26.741Z,4.10
2023-01-29T14:43:07.468Z,2.50
2023-01-29T14:45:38.648Z,2.70
2023-01-29T14:48:11.275Z,3.78
2023-01-29T14:50:41.912Z,2.77
2023-01-29T14:53:40.223Z,3.78
2023-01-29T14:56:35.353Z,2.65
2023-01-29T14:59:15.383Z,2.78
2023-01-29T15:01:47.652Z,2.70
2023-01-29T15:04:19.307Z,2.97
2023-01-29T15:06:47.856Z,3.28
2023-01-29T15:09:35.968Z,3.47
2023-01-29T15:12:16.926Z,3.90
2023-01-29T15:14:57.029Z,3.67
2023-01-29T15:17:48.503Z,4.28
2023-01-29T15:20:32.278Z,4.93
2023-01-29T15:25:27.503Z,3.00
2023-01-29T15:27:54.951Z,3.90
2023-01-29T15:30:30.747Z,3.83
2023-01-29T15:32:57.469Z,3.42
2023-01-29T15:35:26.610Z,3.67
2023-01-29T15:38:01.572Z,3.30
2023-01-29T15:40:28.324Z,3.15
2023-01-29T15:42:54.931Z,3.45
2023-01-29T15:45:32.438Z,3.20
2023-01-29T15:48:06.744Z,4.07
2023-01-29T15:50:35.999Z,2.92
2023-01-29T15:53:04.439Z,3.10
2023-01-29T15:55:31.837Z,4.28
2023-01-29T15:57:59.616Z,3.40
2023-01-29T16:00:28.625Z,4.15
2023-01-29T16:02:56.336Z,2.83
2023-01-29T16:05:29.116Z,2.88
2023-01-29T16:07:57.190Z,3.43
2023-01-29T16:10:29.063Z,3.13
2023-01-29T16:12:55.897Z,3.65
2023-01-29T16:15:36.732Z,3.45
2023-01-29T16:18:24.652Z,4.10
2023-01-29T16:20:53.509Z,4.00
2023-01-29T16:23:22.837Z,4.35
2023-01-29T16:25:50.055Z,4.13
2023-01-29T16:28:17.726Z,3.58
2023-01-29T16:30:44.390Z,3.47
2023-01-29T16:33:17.089Z,3.60
2023-01-29T16:35:50.970Z,5.33
2023-01-29T16:38:32.611Z,4.18
2023-01-29T16:41:06.521Z,4.22
2023-01-29T16:43:42.060Z,3.90
2023-01-29T16:46:24.167Z,4.22
2023-01-29T16:48:51.145Z,6.15
2023-01-29T16:51:20.661Z,4.25
2023-01-29T16:53:56.343Z,4.22
2023-01-29T16:56:26.028Z,4.75
2023-01-29T16:58:53.693Z,4.75
2023-01-29T17:01:20.806Z,6.30
2023-01-29T17:03:58.101Z,4.80
2023-01-29T17:06:25.436Z,5.50
2023-01-29T17:08:52.382Z,4.97
2023-01-29T17:11:37.930Z,4.82
2023-01-29T17:14:07.355Z,6.75
2023-01-29T17:16:36.438Z,5.20
2023-01-29T17:19:15.131Z,4.80
2023-01-29T17:21:41.761Z,5.15
2023-01-29T17:24:08.372Z,4.72
2023-01-29T17:26:34.973Z,5.82
2023-01-29T17:29:01.571Z,6.75
2023-01-29T17:31:28.272Z,6.07
2023-01-29T17:33:54.925Z,6.03
2023-01-29T17:36:21.541Z,6.13
2023-01-29T17:38:48.129Z,5.47
2023-01-29T17:41:21.287Z,7.15
2023-01-29T17:43:47.865Z,4.97
2023-01-29T17:46:16.428Z,6.05
2023-01-29T17:48:43.537Z,7.53
2023-01-29T17:51:13.558Z,7.80
2023-01-29T17:53:45.865Z,6.05
2023-01-29T17:56:30.611Z,5.95
2023-01-29T17:58:57.159Z,5.65
2023-01-29T18:01:23.834Z,6.20
2023-01-29T18:03:50.462Z,7.13
2023-01-29T18:06:28.923Z,6.03
2023-01-29T18:08:56.510Z,7.40
2023-01-29T18:11:23.523Z,7.10
2023-01-29T18:13:50.121Z,7.60
2023-01-29T18:16:18.435Z,6.03
2023-01-29T18:18:45.135Z,7.07
2023-01-29T18:21:11.669Z,7.57
2023-01-29T18:23:38.239Z,5.40
2023-01-29T18:26:05.157Z,5.95
2023-01-29T18:28:31.743Z,6.68
2023-01-29T18:30:58.349Z,6.55
2023-01-29T18:33:25.877Z,6.53
2023-01-29T18:35:54.990Z,6.15
2023-01-29T18:38:21.553Z,6.88
2023-01-29T18:40:48.191Z,5.93
2023-01-29T18:43:15.080Z,5.85
2023-01-29T18:45:41.656Z,5.45
2023-01-29T18:48:08.303Z,5.57
2023-01-29T18:50:35.016Z,6.97
2023-01-29T18:53:01.595Z,5.90
2023-01-29T18:55:28.180Z,7.40
2023-01-29T18:58:27.337Z,5.95
2023-01-29T19:00:42.191Z,8.00
2023-01-29T19:03:08.760Z,7.18
2023-01-29T19:05:35.439Z,6.70
2023-01-29T19:08:02.157Z,5.10
2023-01-29T19:10:28.737Z,6.35
2023-01-29T19:12:55.291Z,5.47
2023-01-29T19:15:22.804Z,6.38
2023-01-29T19:17:52.462Z,6.03
2023-01-29T19:20:19.185Z,5.85
2023-01-29T19:22:45.806Z,6.18
2023-01-29T19:25:12.799Z,6.45
2023-01-29T19:27:39.594Z,5.85
2023-01-29T19:30:07.015Z,6.20
2023-01-29T19:32:33.913Z,7.15
2023-01-29T19:35:00.676Z,5.03
2023-01-29T19:37:27.921Z,6.97
2023-01-29T19:39:54.613Z,6.80
2023-01-29T19:42:21.223Z,5.80
2023-01-29T19:44:48.168Z,5.80
2023-01-29T19:47:15.041Z,5.25
2023-01-29T19:49:41.872Z,6.35
2023-01-29T19:52:31.780Z,5.95
2023-01-29T19:55:04.636Z,7.28
2023-01-29T19:57:32.282Z,5.43
2023-01-29T19:59:59.986Z,5.75
2023-01-29T20:02:28.275Z,6.18
2023-01-29T20:04:55.599Z,5.53
2023-01-29T20:07:22.840Z,6.60
2023-01-29T20:09:51.922Z,7.25
2023-01-29T20:12:19.121Z,6.97
2023-01-29T20:14:48.890Z,5.68
2023-01-29T20:17:16.940Z,5.82
2023-01-29T20:19:44.755Z,5.70
2023-01-29T20:22:12.275Z,6.47
2023-01-29T20:24:42.384Z,5.95
2023-01-29T20:27:12.347Z,7.38
2023-01-29T20:29:39.403Z,5.68
2023-01-29T20:32:08.045Z,4.60
2023-01-29T20:34:35.102Z,6.18
2023-01-29T20:37:01.822Z,5.25
2023-01-29T20:39:28.490Z,7.03
2023-01-29T20:41:57.249Z,4.63
2023-01-29T20:44:24.698Z,5.60
2023-01-29T20:46:51.401Z,5.45
2023-01-29T20:49:18.352Z,6.50
2023-01-29T20:51:45.582Z,6.13
2023-01-29T20:54:14.968Z,5.97
2023-01-29T20:56:42.870Z,6.95
2023-01-29T20:59:10.235Z,6.15
2023-01-29T21:01:36.900Z,4.65
2023-01-29T21:04:03.580Z,5.55
2023-01-29T21:06:30.317Z,6.32
2023-01-29T21:08:56.904Z,5.15
2023-01-29T21:11:23.913Z,5.32
2023-01-29T21:13:53.180Z,6.13
2023-01-29T21:16:19.787Z,4.63
2023-01-29T21:18:46.377Z,5.90
2023-01-29T21:21:12.944Z,5.57
2023-01-29T21:23:39.520Z,5.82
2023-01-29T21:26:06.841Z,4.43
2023-01-29T21:28:33.897Z,6.35
2023-01-29T21:31:10.083Z,5.82
2023-01-29T21:33:37.122Z,5.80
2023-01-29T21:36:04.417Z,5.93
2023-01-29T21:38:32.564Z,5.95
2023-01-29T21:41:04.547Z,6.35
2023-01-29T21:43:31.180Z,5.00
2023-01-29T21:45:59.934Z,7.30
2023-01-29T21:48:26.867Z,5.05
2023-01-29T21:50:53.629Z,4.72
2023-01-29T21:53:20.304Z,5.45
2023-01-29T21:55:46.917Z,5.50
2023-01-29T21:58:14.640Z,4.95
2023-01-29T22:00:41.357Z,5.63
2023-01-29T22:03:07.939Z,7.32
2023-01-29T22:05:35.055Z,6.35
2023-01-29T22:08:02.425Z,5.53
2023-01-29T22:10:30.570Z,7.70
2023-01-29T22:12:57.860Z,5.68
2023-01-29T22:15:24.441Z,5.45
2023-01-29T22:17:51.189Z,7.20
2023-01-29T22:20:19.028Z,5.70
2023-01-29T22:22:45.783Z,4.97
2023-01-29T22:25:12.467Z,5.63
2023-01-29T22:27:39.242Z,5.15
2023-01-29T22:30:06.603Z,4.10
2023-01-29T22:32:33.677Z,4.85
2023-01-29T22:35:00.292Z,6.82
2023-01-29T22:37:26.860Z,6.72
2023-01-29T22:39:53.428Z,5.00
2023-01-29T22:42:20.811Z,5.63
2023-01-29T22:44:48.224Z,5.03
2023-01-29T22:47:15.004Z,5.13
2023-01-29T22:49:42.212Z,5.40
2023-01-29T22:52:11.584Z,5.80
2023-01-29T22:54:42.823Z,5.88
2023-01-29T22:57:13.919Z,5.30
2023-01-29T22:59:40.711Z,4.88
2023-01-29T23:02:07.964Z,5.47
2023-01-29T23:04:34.632Z,6.57
2023-01-29T23:07:01.188Z,4.38
2023-01-29T23:09:27.773Z,5.65
2023-01-29T23:11:54.371Z,4.43
2023-01-29T23:14:20.923Z,6.05
2023-01-29T23:16:47.502Z,4.68
2023-01-29T23:19:14.040Z,4.53
2023-01-29T23:21:40.727Z,3.95
2023-01-29T23:24:08.400Z,6.32
2023-01-29T23:26:53.480Z,4.80
2023-01-29T23:29:20.131Z,4.43
2023-01-29T23:31:46.752Z,4.18
2023-01-29T23:34:14.058Z,4.03
2023-01-29T23:36:40.913Z,4.95
2023-01-29T23:39:08.016Z,5.85
2023-01-29T23:41:34.908Z,4.88
2023-01-29T23:44:01.496Z,6.35
2023-01-29T23:46:28.148Z,5.25
2023-01-29T23:48:54.722Z,4.25
2023-01-29T23:51:21.288Z,5.95
2023-01-29T23:53:47.843Z,5.47
2023-01-29T23:56:14.399Z,4.20
2023-01-29T23:58:40.998Z,6.18
